Siler City, North Carolina
Current Conditions -  °F | °C
As of 4:15 AM on Monday 22 Dec 2014 (Local Time) from K5W8 Reporting Station
Moderate Rain Moderate Rain  
Wind Chill: 33°   Ceiling: 500
Heat Index: 37°   Visibility: 10mi
Dew Point: 36°   Wind: 5mph
Humidity: 98%   Direction: 10°N
Pressure: 30.14"   Gusts: 17mph
Location:  35.72°N, 79.46°W
Report Text: K5W8 220915Z AUTO 01004G15KT 10SM RA OVC005 03/02 A3014 RMK AO2 T00260023
Loading
Personal Weather Stations






























Interactive Weather Map New forecast layout! Learn more

10-Day Weather Forecast

Advertisements
Track Severe Weather on mobile